DLH5DK EDDM-LFKB
Flight info
| Callsign | DLH5DK |
|---|---|
| Flight time | 1h 3m |
| Altitude | 35000 |
| Route | TURBU Y107 TOBSO DCT BAKOR DCT TIPNI DCT MAREL/N0340F190 L12 ELB/N0336F180 L146 MOULE |
| Aircraft | A320/M-SDE2E3FGIJ1LORWXYZ/HB1 |
Departure
| Time | 2026-04-17 09:46 |
|---|---|
| Airport | Munich Airport (EDDM) |
Arrival
| Time | 2026-04-17 10:49 |
|---|---|
| Airport | Bastia-Poretta International airport (LFKB) |
| Time | Latitude | Longitude | Altitude | Speed | Heading |
|---|---|---|---|---|---|
| 2026-04-17 09:17 | 48.35237 | 11.79353 | 1478 ft | 0 kts | 263° |
| 2026-04-17 09:33 | 48.35238 | 11.79371 | 1474 ft | 3 kts | 263° |
| 2026-04-17 09:33 | 48.35241 | 11.79402 | 1478 ft | 3 kts | 263° |
| 2026-04-17 09:33 | 48.35243 | 11.79432 | 1479 ft | 3 kts | 263° |
| 2026-04-17 09:33 | 48.35246 | 11.79462 | 1481 ft | 3 kts | 263° |
| 2026-04-17 09:34 | 48.35248 | 11.79492 | 1485 ft | 3 kts | 263° |
| 2026-04-17 09:34 | 48.35251 | 11.79523 | 1485 ft | 3 kts | 263° |
| 2026-04-17 09:34 | 48.35252 | 11.79552 | 1485 ft | 3 kts | 270° |
| 2026-04-17 09:34 | 48.35252 | 11.79583 | 1485 ft | 3 kts | 268° |
| 2026-04-17 09:35 | 48.35253 | 11.79601 | 1485 ft | 2 kts | 263° |
| 2026-04-17 09:35 | 48.35254 | 11.79618 | 1485 ft | 3 kts | 205° |
| 2026-04-17 09:35 | 48.35267 | 11.79622 | 1474 ft | 1 kts | 173° |
| 2026-04-17 09:35 | 48.35281 | 11.79620 | 1481 ft | 2 kts | 173° |
| 2026-04-17 09:36 | 48.35286 | 11.79619 | 1480 ft | 0 kts | 173° |
| 2026-04-17 09:38 | 48.35273 | 11.79621 | 1485 ft | 7 kts | 173° |
| 2026-04-17 09:38 | 48.35188 | 11.79636 | 1475 ft | 16 kts | 173° |
| 2026-04-17 09:38 | 48.35073 | 11.79656 | 1475 ft | 17 kts | 173° |
| 2026-04-17 09:39 | 48.34948 | 11.79678 | 1483 ft | 19 kts | 173° |
| 2026-04-17 09:39 | 48.34816 | 11.79679 | 1485 ft | 19 kts | 214° |
| 2026-04-17 09:39 | 48.34786 | 11.79495 | 1485 ft | 18 kts | 263° |
| 2026-04-17 09:39 | 48.34772 | 11.79311 | 1485 ft | 19 kts | 263° |
| 2026-04-17 09:40 | 48.34756 | 11.79094 | 1485 ft | 23 kts | 263° |
| 2026-04-17 09:40 | 48.34736 | 11.78837 | 1481 ft | 27 kts | 263° |
| 2026-04-17 09:40 | 48.34713 | 11.78544 | 1485 ft | 29 kts | 263° |
| 2026-04-17 09:40 | 48.34690 | 11.78248 | 1485 ft | 28 kts | 263° |
| 2026-04-17 09:41 | 48.34667 | 11.77954 | 1485 ft | 29 kts | 263° |
| 2026-04-17 09:41 | 48.34648 | 11.77697 | 1485 ft | 25 kts | 263° |
| 2026-04-17 09:41 | 48.34627 | 11.77428 | 1485 ft | 27 kts | 263° |
| 2026-04-17 09:41 | 48.34605 | 11.77147 | 1485 ft | 28 kts | 263° |
| 2026-04-17 09:42 | 48.34583 | 11.76851 | 1483 ft | 29 kts | 263° |
| 2026-04-17 09:42 | 48.34563 | 11.76603 | 1477 ft | 24 kts | 263° |
| 2026-04-17 09:42 | 48.34543 | 11.76343 | 1485 ft | 26 kts | 263° |
| 2026-04-17 09:42 | 48.34522 | 11.76069 | 1473 ft | 27 kts | 263° |
| 2026-04-17 09:43 | 48.34504 | 11.75830 | 1485 ft | 14 kts | 263° |
| 2026-04-17 09:43 | 48.34438 | 11.75782 | 1475 ft | 11 kts | 173° |
| 2026-04-17 09:43 | 48.34370 | 11.75835 | 1480 ft | 11 kts | 131° |
| 2026-04-17 09:43 | 48.34333 | 11.75950 | 1474 ft | 13 kts | 113° |
| 2026-04-17 09:44 | 48.34295 | 11.76083 | 1485 ft | 15 kts | 113° |
| 2026-04-17 09:44 | 48.34261 | 11.76199 | 1473 ft | 7 kts | 113° |
| 2026-04-17 09:44 | 48.34257 | 11.76215 | 1480 ft | 0 kts | 113° |
| 2026-04-17 09:44 | 48.34243 | 11.76264 | 1478 ft | 12 kts | 113° |
| 2026-04-17 09:45 | 48.34203 | 11.76404 | 1471 ft | 16 kts | 113° |
| 2026-04-17 09:45 | 48.34181 | 11.76569 | 1485 ft | 17 kts | 84° |
| 2026-04-17 09:45 | 48.34205 | 11.76884 | 1485 ft | 61 kts | 83° |
| 2026-04-17 09:45 | 48.34280 | 11.77860 | 1481 ft | 124 kts | 83° |
| 2026-04-17 09:46 | 48.34398 | 11.79393 | 1608 ft | 163 kts | 84° |
| 2026-04-17 09:46 | 48.34521 | 11.81042 | 2471 ft | 157 kts | 84° |
| 2026-04-17 09:46 | 48.34641 | 11.82689 | 3095 ft | 168 kts | 84° |
| 2026-04-17 09:46 | 48.34779 | 11.84543 | 3437 ft | 190 kts | 84° |
| 2026-04-17 09:47 | 48.34938 | 11.86646 | 3787 ft | 215 kts | 84° |
| 2026-04-17 09:47 | 48.35119 | 11.88999 | 4354 ft | 235 kts | 83° |
| 2026-04-17 09:47 | 48.35310 | 11.91459 | 5262 ft | 239 kts | 84° |
| 2026-04-17 09:47 | 48.35424 | 11.93972 | 6022 ft | 245 kts | 97° |
| 2026-04-17 09:48 | 48.34790 | 11.96305 | 6529 ft | 246 kts | 128° |
| 2026-04-17 09:48 | 48.33513 | 11.98045 | 6810 ft | 249 kts | 141° |
| 2026-04-17 09:48 | 48.32127 | 11.99658 | 7476 ft | 253 kts | 141° |
| 2026-04-17 09:48 | 48.30715 | 12.01246 | 8378 ft | 256 kts | 147° |
| 2026-04-17 09:49 | 48.29073 | 12.02348 | 9196 ft | 264 kts | 164° |
| 2026-04-17 09:49 | 48.27181 | 12.02688 | 9673 ft | 285 kts | 182° |
| 2026-04-17 09:49 | 48.25165 | 12.02536 | 10352 ft | 294 kts | 183° |
| 2026-04-17 09:49 | 48.23105 | 12.02399 | 11107 ft | 299 kts | 183° |
| 2026-04-17 09:50 | 48.20984 | 12.02274 | 11885 ft | 304 kts | 183° |
| 2026-04-17 09:50 | 48.18884 | 12.02159 | 12624 ft | 309 kts | 183° |
| 2026-04-17 09:50 | 48.16720 | 12.02038 | 13376 ft | 314 kts | 183° |
| 2026-04-17 09:50 | 48.14492 | 12.01906 | 14103 ft | 319 kts | 184° |
| 2026-04-17 09:51 | 48.12290 | 12.01772 | 14767 ft | 323 kts | 184° |
| 2026-04-17 09:51 | 48.09998 | 12.01635 | 15452 ft | 327 kts | 184° |
| 2026-04-17 09:51 | 48.07743 | 12.01476 | 16109 ft | 330 kts | 188° |
| 2026-04-17 09:51 | 48.05469 | 12.00820 | 16534 ft | 341 kts | 198° |
| 2026-04-17 09:52 | 48.03110 | 11.99835 | 16663 ft | 362 kts | 198° |
| 2026-04-17 09:52 | 48.00641 | 11.98783 | 17029 ft | 374 kts | 198° |
| 2026-04-17 09:52 | 47.98124 | 11.97704 | 17622 ft | 379 kts | 198° |
| 2026-04-17 09:52 | 47.95576 | 11.96619 | 18254 ft | 383 kts | 198° |
| 2026-04-17 09:53 | 47.93003 | 11.95538 | 18837 ft | 386 kts | 197° |
| 2026-04-17 09:53 | 47.90333 | 11.94866 | 19367 ft | 393 kts | 186° |
| 2026-04-17 09:53 | 47.87579 | 11.94786 | 19887 ft | 398 kts | 182° |
| 2026-04-17 09:53 | 47.84798 | 11.94750 | 20414 ft | 401 kts | 182° |
| 2026-04-17 09:54 | 47.81972 | 11.94701 | 20929 ft | 405 kts | 183° |
| 2026-04-17 09:54 | 47.79139 | 11.94644 | 21432 ft | 409 kts | 182° |
| 2026-04-17 09:54 | 47.76313 | 11.94589 | 21930 ft | 412 kts | 182° |
| 2026-04-17 09:54 | 47.73429 | 11.94538 | 22421 ft | 416 kts | 182° |
| 2026-04-17 09:55 | 47.70517 | 11.94489 | 22917 ft | 420 kts | 182° |
| 2026-04-17 09:55 | 47.67582 | 11.94441 | 23405 ft | 423 kts | 182° |
| 2026-04-17 09:55 | 47.64615 | 11.94390 | 23841 ft | 427 kts | 182° |
| 2026-04-17 09:55 | 47.61627 | 11.94336 | 24219 ft | 430 kts | 183° |
| 2026-04-17 09:56 | 47.58619 | 11.94283 | 24615 ft | 433 kts | 182° |
| 2026-04-17 09:56 | 47.55601 | 11.94226 | 25045 ft | 435 kts | 182° |
| 2026-04-17 09:56 | 47.52561 | 11.94168 | 25470 ft | 437 kts | 182° |
| 2026-04-17 09:56 | 47.49510 | 11.94112 | 25885 ft | 439 kts | 182° |
| 2026-04-17 09:57 | 47.46439 | 11.94058 | 26263 ft | 442 kts | 182° |
| 2026-04-17 09:57 | 47.43357 | 11.93973 | 26673 ft | 443 kts | 186° |
| 2026-04-17 09:57 | 47.40289 | 11.93451 | 27073 ft | 444 kts | 190° |
| 2026-04-17 09:57 | 47.37225 | 11.92833 | 27451 ft | 446 kts | 190° |
| 2026-04-17 09:58 | 47.35188 | 11.92424 | 27722 ft | 447 kts | 190° |
| 2026-04-17 09:58 | 47.32091 | 11.91805 | 28117 ft | 449 kts | 190° |
| 2026-04-17 09:58 | 47.28991 | 11.91188 | 28519 ft | 451 kts | 190° |
| 2026-04-17 09:58 | 47.24849 | 11.90372 | 29011 ft | 454 kts | 190° |
| 2026-04-17 09:59 | 47.22728 | 11.89953 | 29264 ft | 456 kts | 190° |
| 2026-04-17 09:59 | 47.19606 | 11.89330 | 29635 ft | 458 kts | 190° |
| 2026-04-17 09:59 | 47.16443 | 11.88697 | 29984 ft | 460 kts | 190° |
| 2026-04-17 09:59 | 47.13255 | 11.88061 | 30314 ft | 463 kts | 190° |
| 2026-04-17 10:00 | 47.10056 | 11.87423 | 30592 ft | 465 kts | 191° |
| 2026-04-17 10:00 | 47.06835 | 11.86782 | 30859 ft | 467 kts | 190° |
| 2026-04-17 10:00 | 47.03605 | 11.86146 | 31127 ft | 469 kts | 190° |
| 2026-04-17 10:00 | 47.00366 | 11.85469 | 31389 ft | 471 kts | 192° |
| 2026-04-17 10:01 | 46.97140 | 11.84605 | 31624 ft | 472 kts | 195° |
| 2026-04-17 10:01 | 46.93938 | 11.83583 | 31957 ft | 471 kts | 197° |
| 2026-04-17 10:01 | 46.90748 | 11.82477 | 32314 ft | 470 kts | 197° |
| 2026-04-17 10:01 | 46.87568 | 11.81358 | 32663 ft | 469 kts | 197° |
| 2026-04-17 10:02 | 46.84390 | 11.80267 | 33024 ft | 469 kts | 197° |
| 2026-04-17 10:02 | 46.81207 | 11.79219 | 33393 ft | 469 kts | 196° |
| 2026-04-17 10:02 | 46.78023 | 11.78207 | 33763 ft | 468 kts | 196° |
| 2026-04-17 10:02 | 46.74837 | 11.77216 | 34116 ft | 467 kts | 195° |
| 2026-04-17 10:03 | 46.71698 | 11.76247 | 34437 ft | 467 kts | 196° |
| 2026-04-17 10:03 | 46.68526 | 11.75264 | 34746 ft | 466 kts | 196° |
| 2026-04-17 10:03 | 46.65357 | 11.74275 | 35056 ft | 465 kts | 196° |
| 2026-04-17 10:03 | 46.62193 | 11.73282 | 35177 ft | 463 kts | 196° |
| 2026-04-17 10:04 | 46.55921 | 11.71524 | 35183 ft | 457 kts | 193° |
| 2026-04-17 10:04 | 46.49633 | 11.70158 | 35196 ft | 457 kts | 192° |
| 2026-04-17 10:05 | 46.43342 | 11.68834 | 35197 ft | 457 kts | 192° |
| 2026-04-17 10:05 | 46.37022 | 11.67411 | 35194 ft | 456 kts | 192° |
| 2026-04-17 10:06 | 46.30758 | 11.65951 | 35191 ft | 456 kts | 192° |
| 2026-04-17 10:06 | 46.24496 | 11.64506 | 35186 ft | 456 kts | 192° |
| 2026-04-17 10:07 | 46.18235 | 11.63075 | 35183 ft | 455 kts | 192° |
| 2026-04-17 10:07 | 46.11970 | 11.61654 | 35184 ft | 456 kts | 192° |
| 2026-04-17 10:08 | 46.05706 | 11.60237 | 35189 ft | 456 kts | 192° |
| 2026-04-17 10:08 | 45.99438 | 11.58834 | 35200 ft | 456 kts | 192° |
| 2026-04-17 10:09 | 45.93164 | 11.57428 | 35191 ft | 456 kts | 192° |
| 2026-04-17 10:09 | 45.86887 | 11.56007 | 35191 ft | 456 kts | 192° |
| 2026-04-17 10:10 | 45.80614 | 11.54584 | 35183 ft | 457 kts | 192° |
| 2026-04-17 10:11 | 45.71197 | 11.52485 | 35153 ft | 457 kts | 192° |
| 2026-04-17 10:11 | 45.64921 | 11.51078 | 35153 ft | 456 kts | 192° |
| 2026-04-17 10:12 | 45.58645 | 11.49669 | 35148 ft | 457 kts | 192° |
| 2026-04-17 10:12 | 45.52369 | 11.48279 | 35155 ft | 456 kts | 192° |
| 2026-04-17 10:13 | 45.46091 | 11.46905 | 35164 ft | 456 kts | 192° |
| 2026-04-17 10:13 | 45.39821 | 11.45518 | 35169 ft | 456 kts | 192° |
| 2026-04-17 10:14 | 45.33556 | 11.44126 | 35168 ft | 455 kts | 192° |
| 2026-04-17 10:14 | 45.27300 | 11.42745 | 35176 ft | 455 kts | 192° |
| 2026-04-17 10:15 | 45.21045 | 11.41376 | 35175 ft | 455 kts | 192° |
| 2026-04-17 10:15 | 45.14796 | 11.40002 | 35180 ft | 455 kts | 192° |
| 2026-04-17 10:16 | 45.08546 | 11.38629 | 35187 ft | 455 kts | 192° |
| 2026-04-17 10:16 | 45.02290 | 11.37265 | 35196 ft | 455 kts | 192° |
| 2026-04-17 10:17 | 44.96033 | 11.35898 | 35197 ft | 455 kts | 191° |
| 2026-04-17 10:17 | 44.89779 | 11.34537 | 35204 ft | 455 kts | 191° |
| 2026-04-17 10:18 | 44.83525 | 11.33180 | 35198 ft | 454 kts | 191° |
| 2026-04-17 10:18 | 44.77278 | 11.31835 | 35181 ft | 454 kts | 191° |
| 2026-04-17 10:19 | 44.71031 | 11.30492 | 35175 ft | 454 kts | 191° |
| 2026-04-17 10:19 | 44.64782 | 11.29151 | 35164 ft | 454 kts | 191° |
| 2026-04-17 10:20 | 44.58536 | 11.27815 | 35155 ft | 454 kts | 191° |
| 2026-04-17 10:20 | 44.52338 | 11.26483 | 35156 ft | 454 kts | 191° |
| 2026-04-17 10:21 | 44.46048 | 11.25129 | 35157 ft | 454 kts | 191° |
| 2026-04-17 10:21 | 44.39808 | 11.23785 | 35214 ft | 454 kts | 191° |
| 2026-04-17 10:22 | 44.33569 | 11.22451 | 35215 ft | 454 kts | 191° |
| 2026-04-17 10:22 | 44.27535 | 11.20148 | 35213 ft | 448 kts | 205° |
| 2026-04-17 10:23 | 44.21757 | 11.16888 | 35203 ft | 448 kts | 205° |
| 2026-04-17 10:23 | 44.15975 | 11.13632 | 35200 ft | 448 kts | 205° |
| 2026-04-17 10:24 | 44.10194 | 11.10389 | 35166 ft | 448 kts | 205° |
| 2026-04-17 10:24 | 44.04407 | 11.07154 | 35137 ft | 448 kts | 205° |
| 2026-04-17 10:25 | 43.98620 | 11.03927 | 35113 ft | 448 kts | 205° |
| 2026-04-17 10:25 | 43.92826 | 11.00699 | 35104 ft | 449 kts | 205° |
| 2026-04-17 10:26 | 43.87029 | 10.97475 | 35100 ft | 449 kts | 204° |
| 2026-04-17 10:26 | 43.84125 | 10.95860 | 34942 ft | 450 kts | 204° |
| 2026-04-17 10:26 | 43.81216 | 10.94245 | 34699 ft | 450 kts | 204° |
| 2026-04-17 10:26 | 43.78306 | 10.92633 | 34468 ft | 450 kts | 204° |
| 2026-04-17 10:27 | 43.75401 | 10.91026 | 34219 ft | 449 kts | 204° |
| 2026-04-17 10:27 | 43.72507 | 10.89426 | 33950 ft | 448 kts | 204° |
| 2026-04-17 10:27 | 43.69620 | 10.87834 | 33682 ft | 446 kts | 204° |
| 2026-04-17 10:27 | 43.66739 | 10.86250 | 33410 ft | 445 kts | 204° |
| 2026-04-17 10:28 | 43.63900 | 10.84565 | 32787 ft | 444 kts | 212° |
| 2026-04-17 10:28 | 43.61404 | 10.82040 | 31565 ft | 449 kts | 229° |
| 2026-04-17 10:28 | 43.59316 | 10.78809 | 30692 ft | 451 kts | 232° |
| 2026-04-17 10:28 | 43.57281 | 10.75565 | 30243 ft | 444 kts | 232° |
| 2026-04-17 10:29 | 43.55280 | 10.72386 | 29367 ft | 435 kts | 232° |
| 2026-04-17 10:29 | 43.53333 | 10.69308 | 28347 ft | 429 kts | 232° |
| 2026-04-17 10:29 | 43.51378 | 10.66233 | 27351 ft | 426 kts | 231° |
| 2026-04-17 10:29 | 43.49429 | 10.63170 | 26780 ft | 423 kts | 231° |
| 2026-04-17 10:30 | 43.47494 | 10.60153 | 26401 ft | 415 kts | 230° |
| 2026-04-17 10:30 | 43.45321 | 10.57505 | 26015 ft | 411 kts | 218° |
| 2026-04-17 10:30 | 43.43065 | 10.55218 | 25569 ft | 406 kts | 218° |
| 2026-04-17 10:30 | 43.40797 | 10.52940 | 25198 ft | 400 kts | 218° |
| 2026-04-17 10:31 | 43.38541 | 10.50688 | 24892 ft | 392 kts | 218° |
| 2026-04-17 10:31 | 43.36373 | 10.48521 | 24423 ft | 390 kts | 218° |
| 2026-04-17 10:31 | 43.34159 | 10.46301 | 23928 ft | 388 kts | 218° |
| 2026-04-17 10:31 | 43.31981 | 10.44113 | 23392 ft | 387 kts | 218° |
| 2026-04-17 10:32 | 43.29813 | 10.41935 | 22885 ft | 385 kts | 218° |
| 2026-04-17 10:32 | 43.27663 | 10.39774 | 22393 ft | 382 kts | 218° |
| 2026-04-17 10:32 | 43.25526 | 10.37632 | 21911 ft | 380 kts | 218° |
| 2026-04-17 10:32 | 43.23398 | 10.35503 | 21431 ft | 378 kts | 217° |
| 2026-04-17 10:33 | 43.21280 | 10.33387 | 20949 ft | 376 kts | 217° |
| 2026-04-17 10:33 | 43.19171 | 10.31283 | 20480 ft | 374 kts | 217° |
| 2026-04-17 10:33 | 43.17070 | 10.29190 | 20005 ft | 373 kts | 217° |
| 2026-04-17 10:33 | 43.14979 | 10.27106 | 19548 ft | 372 kts | 217° |
| 2026-04-17 10:34 | 43.12891 | 10.25027 | 19075 ft | 371 kts | 217° |
| 2026-04-17 10:34 | 43.10810 | 10.22955 | 18616 ft | 370 kts | 218° |
| 2026-04-17 10:34 | 43.08733 | 10.20885 | 18128 ft | 369 kts | 218° |
| 2026-04-17 10:34 | 43.06664 | 10.18827 | 17657 ft | 366 kts | 217° |
| 2026-04-17 10:35 | 43.04609 | 10.16787 | 17204 ft | 364 kts | 217° |
| 2026-04-17 10:35 | 43.02572 | 10.14765 | 16764 ft | 361 kts | 217° |
| 2026-04-17 10:35 | 43.00546 | 10.12757 | 16329 ft | 359 kts | 217° |
| 2026-04-17 10:35 | 42.98532 | 10.10762 | 15892 ft | 357 kts | 217° |
| 2026-04-17 10:36 | 42.96528 | 10.08779 | 15455 ft | 355 kts | 217° |
| 2026-04-17 10:36 | 42.94535 | 10.06809 | 15025 ft | 353 kts | 217° |
| 2026-04-17 10:36 | 42.92549 | 10.04845 | 14600 ft | 352 kts | 217° |
| 2026-04-17 10:36 | 42.90571 | 10.02891 | 14166 ft | 351 kts | 217° |
| 2026-04-17 10:37 | 42.88597 | 10.00944 | 13706 ft | 350 kts | 217° |
| 2026-04-17 10:37 | 42.86631 | 9.99011 | 13264 ft | 347 kts | 217° |
| 2026-04-17 10:37 | 42.84681 | 9.97099 | 12845 ft | 344 kts | 217° |
| 2026-04-17 10:37 | 42.82745 | 9.95199 | 12406 ft | 341 kts | 217° |
| 2026-04-17 10:38 | 42.81475 | 9.93951 | 12182 ft | 338 kts | 217° |
| 2026-04-17 10:38 | 42.79604 | 9.92109 | 12060 ft | 326 kts | 217° |
| 2026-04-17 10:38 | 42.77798 | 9.90333 | 11918 ft | 316 kts | 217° |
| 2026-04-17 10:38 | 42.76034 | 9.88599 | 11638 ft | 311 kts | 217° |
| 2026-04-17 10:39 | 42.74288 | 9.86884 | 11295 ft | 308 kts | 217° |
| 2026-04-17 10:39 | 42.72553 | 9.85181 | 10966 ft | 307 kts | 217° |
| 2026-04-17 10:39 | 42.70826 | 9.83491 | 10611 ft | 305 kts | 217° |
| 2026-04-17 10:39 | 42.69112 | 9.81815 | 10279 ft | 303 kts | 217° |
| 2026-04-17 10:40 | 42.67416 | 9.80159 | 9944 ft | 300 kts | 217° |
| 2026-04-17 10:40 | 42.65729 | 9.78513 | 9310 ft | 296 kts | 217° |
| 2026-04-17 10:40 | 42.64051 | 9.76875 | 8753 ft | 298 kts | 217° |
| 2026-04-17 10:40 | 42.62350 | 9.75262 | 8298 ft | 299 kts | 211° |
| 2026-04-17 10:41 | 42.60466 | 9.74080 | 7854 ft | 299 kts | 202° |
| 2026-04-17 10:41 | 42.58535 | 9.73025 | 7408 ft | 299 kts | 203° |
| 2026-04-17 10:41 | 42.56607 | 9.71965 | 6969 ft | 299 kts | 203° |
| 2026-04-17 10:41 | 42.54680 | 9.70908 | 6539 ft | 299 kts | 203° |
| 2026-04-17 10:42 | 42.52756 | 9.69852 | 6068 ft | 298 kts | 202° |
| 2026-04-17 10:42 | 42.50839 | 9.68801 | 5626 ft | 297 kts | 202° |
| 2026-04-17 10:42 | 42.48926 | 9.67749 | 5181 ft | 296 kts | 202° |
| 2026-04-17 10:42 | 42.47019 | 9.66702 | 4729 ft | 295 kts | 202° |
| 2026-04-17 10:43 | 42.45118 | 9.65662 | 4274 ft | 294 kts | 202° |
| 2026-04-17 10:43 | 42.43224 | 9.64626 | 3820 ft | 293 kts | 202° |
| 2026-04-17 10:43 | 42.41345 | 9.63595 | 3428 ft | 289 kts | 202° |
| 2026-04-17 10:43 | 42.39522 | 9.62596 | 3252 ft | 277 kts | 202° |
| 2026-04-17 10:44 | 42.37776 | 9.61638 | 3095 ft | 264 kts | 203° |
| 2026-04-17 10:44 | 42.36284 | 9.60358 | 2998 ft | 247 kts | 230° |
| 2026-04-17 10:44 | 42.35618 | 9.58380 | 2997 ft | 224 kts | 270° |
| 2026-04-17 10:44 | 42.36049 | 9.56489 | 2999 ft | 208 kts | 314° |
| 2026-04-17 10:45 | 42.37267 | 9.55601 | 3007 ft | 201 kts | 353° |
| 2026-04-17 10:45 | 42.38637 | 9.55332 | 3016 ft | 193 kts | 346° |
| 2026-04-17 10:45 | 42.39877 | 9.54825 | 2897 ft | 181 kts | 343° |
| 2026-04-17 10:45 | 42.41053 | 9.54325 | 2692 ft | 174 kts | 344° |
| 2026-04-17 10:46 | 42.42198 | 9.53843 | 2473 ft | 171 kts | 345° |
| 2026-04-17 10:46 | 42.43330 | 9.53370 | 2262 ft | 169 kts | 345° |
| 2026-04-17 10:46 | 42.44450 | 9.52901 | 2036 ft | 169 kts | 344° |
| 2026-04-17 10:46 | 42.45562 | 9.52436 | 1806 ft | 161 kts | 344° |
| 2026-04-17 10:47 | 42.46564 | 9.52017 | 1623 ft | 145 kts | 344° |
| 2026-04-17 10:47 | 42.47498 | 9.51626 | 1413 ft | 136 kts | 344° |
| 2026-04-17 10:47 | 42.48396 | 9.51251 | 1239 ft | 134 kts | 345° |
| 2026-04-17 10:47 | 42.49279 | 9.50882 | 1059 ft | 131 kts | 345° |
| 2026-04-17 10:48 | 42.50152 | 9.50516 | 896 ft | 132 kts | 345° |
| 2026-04-17 10:48 | 42.51025 | 9.50151 | 702 ft | 131 kts | 345° |
| 2026-04-17 10:48 | 42.51898 | 9.49780 | 534 ft | 132 kts | 345° |
| 2026-04-17 10:48 | 42.52768 | 9.49418 | 352 ft | 130 kts | 344° |
| 2026-04-17 10:49 | 42.53632 | 9.49061 | 169 ft | 130 kts | 344° |
| 2026-04-17 10:49 | 42.54494 | 9.48697 | 43 ft | 127 kts | 343° |
| 2026-04-17 10:49 | 42.55278 | 9.48369 | 37 ft | 91 kts | 343° |
| 2026-04-17 10:49 | 42.55665 | 9.48206 | 29 ft | 46 kts | 343° |
| 2026-04-17 10:50 | 42.55922 | 9.48098 | 28 ft | 24 kts | 341° |
| 2026-04-17 10:50 | 42.55945 | 9.47927 | 29 ft | 15 kts | 252° |
| 2026-04-17 10:50 | 42.55874 | 9.47865 | 26 ft | 12 kts | 173° |
| 2026-04-17 10:50 | 42.55803 | 9.47893 | 27 ft | 10 kts | 163° |
| 2026-04-17 10:51 | 42.55727 | 9.47925 | 29 ft | 14 kts | 162° |
| 2026-04-17 10:51 | 42.55623 | 9.47969 | 32 ft | 18 kts | 162° |
| 2026-04-17 10:51 | 42.55494 | 9.48025 | 35 ft | 20 kts | 166° |
| 2026-04-17 10:51 | 42.55369 | 9.48075 | 35 ft | 18 kts | 162° |
| 2026-04-17 10:52 | 42.55256 | 9.48122 | 35 ft | 16 kts | 163° |
| 2026-04-17 10:52 | 42.55152 | 9.48166 | 35 ft | 15 kts | 163° |
| 2026-04-17 10:52 | 42.55055 | 9.48207 | 35 ft | 15 kts | 162° |
| 2026-04-17 10:52 | 42.54944 | 9.48236 | 35 ft | 18 kts | 177° |
| 2026-04-17 10:53 | 42.54827 | 9.48280 | 35 ft | 12 kts | 162° |
| 2026-04-17 10:53 | 42.54787 | 9.48219 | 35 ft | 9 kts | 253° |
| 2026-04-17 10:53 | 42.54781 | 9.48189 | 35 ft | 1 kts | 253° |
| 2026-04-17 10:53 | 42.54780 | 9.48187 | 35 ft | 0 kts | 253° |